Aktuální počasí v Česku a ve světě - METAR

Seznam meteostanic umístěných nejčasteji na letišti v ČR a ve světě

Vyhledat místa podle abecedy:
A B C D E F G H I J K L M N O P Q R S T U V W X Y Z

Filtrovat:

ID stanice:
a/nebo
Název místa (fulltext):
 
Místo (ID)Naposledy načteno 
Milešovka (Milesovka) 01.10.2020 04:00 UTC Zobrazit data
Místo: Milešovka
Teplota: 8 °C (pocitová: 1.6 °C)
Vítr: 6 m/s z(e) 360°
Počasí: skorojasno
Dohlednost: 55 km
Zákl. oblačnosti: 1/8 9000 m
Vlhkost: 93%
Mošnov (Ostrava/Mo) 01.10.2020 04:00 UTC Zobrazit data
Místo: Mošnov
Teplota: 12 °C (pocitová: 8.7 °C)
Vítr: 3 m/s z(e) 350°
Počasí: déšť
Dohlednost: 8 km
Zákl. oblačnosti: 8/8 120 m
Vlhkost: 100%
Macau (VMMC) 01.10.2020 04:00 UTC Zobrazit METAR
VMMC 010400Z 09010KT 060V120 9999 FEW018 SCT028 28/23 Q1010 NOSIG
Madeira (LPMA) 01.10.2020 04:00 UTC Zobrazit METAR
LPMA 010400Z 02006KT 340V060 9999 BKN015 20/17 Q1021
Madrid (LETO) 01.10.2020 04:00 UTC Zobrazit METAR
LETO 010400Z 01005KT CAVOK 11/07 Q1012 NOSIG
Majuro Atoll (PKMA) Zatím nenačteno  
Malabo (FGSL) 01.10.2020 04:00 UTC Zobrazit METAR
FGSL 010400Z 23003KT 9999 SCT010 23/23 Q1011 NOSIG
Malaga (LEMG) 01.10.2020 04:00 UTC Zobrazit METAR
LEMG 010400Z 28009KT CAVOK 22/15 Q1012 NOSIG
Male (VRMM) 30.09.2020 19:00 UTC Zobrazit METAR
VRMM 301900Z 28008KT 9999 FEW018 BKN110 28/25 Q1010 NOSIG
Malmo (ESMS) 30.09.2020 22:50 UTC Zobrazit METAR
ESMS 302250Z 08003KT 2000 BR FEW018 11/10 Q1015
Malta (LMML) 01.10.2020 03:45 UTC Zobrazit METAR
LMML 010345Z 17003KT 9999 SCT024 21/18 Q1011 NOSIG
Managua (MNMG) 30.09.2020 16:00 UTC Zobrazit METAR
MNMG 301600Z 10006KT 9999 FEW024 SCT300 30/24 Q1011 A2987 NOSIG
Manchester (EGCC) 01.10.2020 03:50 UTC Zobrazit METAR
EGCC 010350Z AUTO 19003KT 9999 BKN038 OVC045 09/09 Q0998 NOSIG
Manila (RPLL) 01.10.2020 04:00 UTC Zobrazit METAR
RPLL 010400Z 09004KT 030V200 9999 SCT025 BKN300 33/25 Q1006 NOSIG RMK A2971
Manzini (FDMS) 28.09.2020 09:00 UTC Zobrazit METAR
FDMS 280900Z 19005KT 9999 SCT015 BKN025 15/14 Q1021 TEMPO 7000 -RA
Maputo (FQMA) 01.10.2020 04:00 UTC Zobrazit METAR
FQMA 010400Z VRB02KT 5000 BR BKN010 OVC020 19/18 Q1014 NOSIG
Maribor (LJMB) 01.10.2020 04:00 UTC Zobrazit METAR
LJMB 010400Z VRB01KT CAVOK 06/06 Q1009
Marrakech (GMMX) 01.10.2020 04:00 UTC Zobrazit METAR
GMMX 010400Z 24007KT CAVOK 18/16 Q1017 NOSIG
Maseru (FXMM) 30.09.2020 09:00 UTC Zobrazit METAR
FXMM 300900Z 36006KT 9999 FEW035 18/M07 Q1024 BECMG 30014KT
Mauritius (FIMP) 01.10.2020 04:00 UTC Zobrazit METAR
FIMP 010400Z 03006KT 9999 FEW019 23/19 Q1018
Melilla (GEML) 01.10.2020 04:00 UTC Zobrazit METAR
GEML 010400Z 26004KT 170V330 CAVOK 23/17 Q1013
Mexico City (MMMX) 01.10.2020 03:45 UTC Zobrazit METAR
MMMX 010345Z 30009KT 10SM FEW020 BKN080 17/07 A3038 NOSIG RMK 8/430 HZY
Midway Atoll, Sand Island (PMDY) 01.10.2020 03:56 UTC Zobrazit METAR
PMDY 010356Z AUTO 31006KT 7SM SCT022 OVC029 28/23 A2996 RMK AO2 SLP143 T02780233
Milan (LIMC) 01.10.2020 03:50 UTC Zobrazit METAR
LIMC 010350Z 03002KT 9999 BKN050 14/13 Q1009 NOSIG
Minsk (UMMM) 11.07.2016 14:00 UTC Zobrazit METAR
UMMM 111400Z ///// //// BKN040 BKN200 28/16 Q1009 NOSIG RMK QFE738
Mitilini (LGMT) 01.10.2020 03:50 UTC Zobrazit METAR
LGMT 010350Z 25005KT CAVOK 18/12 Q1009
Mogadishu (HCMM) 01.10.2020 04:00 UTC Zobrazit METAR
HCMM 010400Z 20010KT 9999 BKN021 26/20 Q1011
Monrovia (GLRB) 29.09.2020 11:00 UTC Zobrazit METAR
GLRB 291100Z 22009KT 9999 BKN016 30/25 Q1014 NOSIG
Montevideo (SUMU) 01.10.2020 04:00 UTC Zobrazit METAR
SUMU 010400Z 20007KT CAVOK 15/12 Q1006 NOSIG
Montpellier/ Mediterranee (LFMT) 01.10.2020 04:00 UTC Zobrazit METAR
LFMT 010400Z AUTO 05005KT 9999 FEW010 OVC015 14/13 Q1009 TEMPO 0600 FG VV///
Moscow (UUEE) Zatím nenačteno  
Mostar (LQMO) 01.10.2020 03:00 UTC Zobrazit METAR
LQMO 010300Z VRB02KT CAVOK 09/09 Q1010
Mount Pleasant (EGYP) 01.10.2020 03:50 UTC Zobrazit METAR
EGYP 010350Z 16005KT 3000 -SHSN BKN004 BKN009 BKN015 00/M00 Q0979
Munich (EDDM) 30.09.2020 18:50 UTC Zobrazit METAR
EDDM 301850Z 05002KT CAVOK 09/08 Q1014 NOSIG
Muscat (OOMS) 01.10.2020 03:50 UTC Zobrazit METAR
OOMS 010350Z VRB02KT CAVOK 30/26 Q1009 NOSIG
Reklama

Počasí na Váš email

Emaily jsou bez reklamy a bez spamu



Odhlásit newsletter




Další české internetové stránky (nejen) o počasí najdete v katalogu TOPlist - weby o počasí nebo vyhledejte na internetu, co jste tu na 🌞 Slunečnu ⛅ zatím nenašli:
⭐ Přidat Slunečno.cz do oblíbených | 🏠 Nastavit Slunečno.cz jako HOMEPAGE

⬆️ Posunout stránku nahoru ⬆️
Reklama